createdAt,value
2023-03-26T00:01:47.449Z,72.71
2023-03-26T00:04:20.573Z,73.83
2023-03-26T00:06:54.937Z,73.51
2023-03-26T00:09:25.375Z,72.02
2023-03-26T00:11:57.437Z,72.29
2023-03-26T00:14:28.044Z,71.36
2023-03-26T00:16:58.775Z,73.96
2023-03-26T00:19:31.012Z,72.62
2023-03-26T00:22:01.804Z,71.50
2023-03-26T00:24:32.829Z,71.17
2023-03-26T00:27:09.701Z,71.27
2023-03-26T00:29:40.766Z,71.02
2023-03-26T00:32:11.255Z,72.20
2023-03-26T00:34:42.185Z,71.36
2023-03-26T00:37:13.444Z,72.35
2023-03-26T00:39:45.506Z,71.79
2023-03-26T00:42:17.581Z,70.21
2023-03-26T00:44:48.396Z,70.42
2023-03-26T00:47:18.837Z,70.50
2023-03-26T00:49:49.649Z,70.74
2023-03-26T00:52:21.617Z,69.48
2023-03-26T00:54:54.815Z,69.18
2023-03-26T00:57:35.772Z,69.08
2023-03-26T01:00:17.682Z,68.11
2023-03-26T01:02:48.290Z,67.96
2023-03-26T01:05:49.944Z,67.16
2023-03-26T01:08:28.144Z,67.66
2023-03-26T01:11:07.751Z,66.40
2023-03-26T01:13:41.560Z,65.78
2023-03-26T01:16:23.428Z,65.39
2023-03-26T01:18:54.782Z,64.66
2023-03-26T01:21:30.874Z,65.20
2023-03-26T01:24:05.999Z,64.76
2023-03-26T01:27:08.723Z,63.37
2023-03-26T01:29:48.295Z,63.55
2023-03-26T01:32:38.558Z,63.10
2023-03-26T01:35:21.610Z,62.62
2023-03-26T01:38:00.140Z,62.56
2023-03-26T01:40:39.446Z,63.00
2023-03-26T01:43:15.841Z,62.67
2023-03-26T01:45:49.060Z,62.53
2023-03-26T01:48:20.838Z,63.35
2023-03-26T01:50:54.336Z,63.52
2023-03-26T01:53:24.909Z,61.94
2023-03-26T01:56:07.281Z,61.41
2023-03-26T01:58:45.406Z,61.51
2023-03-26T02:01:29.407Z,61.08
2023-03-26T02:04:05.788Z,61.12
2023-03-26T02:06:41.392Z,59.30
2023-03-26T02:09:17.209Z,59.45
2023-03-26T02:11:51.115Z,58.48
2023-03-26T02:14:21.824Z,59.31
2023-03-26T02:16:52.574Z,58.32
2023-03-26T02:19:25.332Z,57.90
2023-03-26T02:22:00.644Z,58.17
2023-03-26T02:24:31.109Z,57.75
2023-03-26T02:27:03.190Z,56.68
2023-03-26T02:29:38.599Z,58.00
2023-03-26T02:32:10.331Z,56.83
2023-03-26T02:34:41.230Z,55.43
2023-03-26T02:37:12.151Z,56.23
2023-03-26T02:39:43.195Z,56.84
2023-03-26T02:42:16.934Z,56.97
2023-03-26T02:44:47.475Z,56.52
2023-03-26T02:47:18.025Z,56.28
2023-03-26T02:49:48.423Z,55.29
2023-03-26T02:52:19.479Z,54.61
2023-03-26T02:54:49.825Z,56.33
2023-03-26T02:57:22.209Z,55.81
2023-03-26T02:59:53.599Z,56.59
2023-03-26T03:02:25.197Z,55.75
2023-03-26T03:05:03.119Z,55.76
2023-03-26T03:07:33.525Z,55.26
2023-03-26T03:10:04.125Z,55.14
2023-03-26T03:12:36.374Z,55.27
2023-03-26T03:15:07.406Z,55.68
2023-03-26T03:17:38.128Z,55.39
2023-03-26T03:20:10.321Z,55.09
2023-03-26T03:22:41.003Z,54.36
2023-03-26T03:25:15.102Z,55.36
2023-03-26T03:27:47.545Z,53.29
2023-03-26T03:30:18.103Z,54.62
2023-03-26T03:32:48.608Z,54.99
2023-03-26T03:35:19.276Z,55.66
2023-03-26T03:37:49.893Z,56.43
2023-03-26T03:40:20.535Z,57.68
2023-03-26T03:42:53.140Z,57.66
2023-03-26T03:45:23.603Z,58.20
2023-03-26T03:47:54.213Z,58.25
2023-03-26T03:50:24.886Z,56.98
2023-03-26T03:52:56.636Z,56.76
2023-03-26T03:55:30.825Z,58.04
2023-03-26T03:58:03.064Z,58.13
2023-03-26T04:00:33.581Z,57.38
2023-03-26T04:03:07.126Z,57.87
2023-03-26T04:05:37.522Z,58.24
2023-03-26T04:08:08.214Z,58.51
2023-03-26T04:10:38.700Z,58.12
2023-03-26T04:13:10.812Z,58.73
2023-03-26T04:15:41.356Z,58.76
2023-03-26T04:18:12.828Z,59.32
2023-03-26T04:20:49.999Z,59.29
2023-03-26T04:23:21.970Z,58.55
2023-03-26T04:25:55.022Z,59.20
2023-03-26T04:28:32.896Z,59.00
2023-03-26T04:31:05.147Z,59.03
2023-03-26T04:33:37.493Z,58.93
2023-03-26T04:36:09.538Z,58.62
2023-03-26T04:38:45.438Z,58.68
2023-03-26T04:41:16.652Z,58.91
2023-03-26T04:43:51.347Z,59.46
2023-03-26T04:46:23.222Z,59.46
2023-03-26T04:48:54.260Z,59.34
2023-03-26T04:51:28.819Z,58.23
2023-03-26T04:54:02.222Z,58.91
2023-03-26T04:56:41.942Z,59.22
2023-03-26T04:59:15.712Z,59.86
2023-03-26T05:01:47.053Z,59.42
2023-03-26T05:04:17.573Z,60.43
2023-03-26T05:06:48.044Z,61.63
2023-03-26T05:09:18.824Z,60.11
2023-03-26T05:11:49.320Z,59.95
2023-03-26T05:14:21.749Z,60.54
2023-03-26T05:16:54.043Z,61.44
2023-03-26T05:19:24.659Z,60.80
2023-03-26T05:21:55.273Z,58.62
2023-03-26T05:24:25.970Z,58.84
2023-03-26T05:26:56.665Z,59.58
2023-03-26T05:29:28.871Z,59.20
2023-03-26T05:31:59.371Z,60.27
2023-03-26T05:34:29.905Z,57.64
2023-03-26T05:37:00.576Z,58.52
2023-03-26T05:39:31.095Z,59.06
2023-03-26T05:42:01.574Z,59.89
2023-03-26T05:44:33.646Z,61.15
2023-03-26T05:47:04.727Z,60.26
2023-03-26T05:49:35.192Z,60.03
2023-03-26T05:52:05.697Z,60.18
2023-03-26T05:54:36.256Z,59.95
2023-03-26T05:57:07.596Z,59.93
2023-03-26T05:59:43.309Z,59.86
2023-03-26T06:02:14.145Z,59.70
2023-03-26T06:04:46.503Z,59.59
2023-03-26T06:07:17.653Z,60.04
2023-03-26T06:09:48.275Z,59.88
2023-03-26T06:12:18.828Z,60.19
2023-03-26T06:14:50.847Z,60.39
2023-03-26T06:17:21.370Z,60.81
2023-03-26T06:19:51.912Z,61.09
2023-03-26T06:22:22.518Z,61.33
2023-03-26T06:24:53.712Z,61.90
2023-03-26T06:27:24.163Z,62.05
2023-03-26T06:29:56.267Z,62.33
2023-03-26T06:32:26.949Z,61.25
2023-03-26T06:34:57.656Z,62.27
2023-03-26T06:37:28.179Z,62.34
2023-03-26T06:39:58.677Z,62.65
2023-03-26T06:43:06.934Z,62.24
2023-03-26T06:45:21.345Z,62.29
2023-03-26T06:47:51.865Z,62.37
2023-03-26T06:50:22.835Z,61.89
2023-03-26T06:52:58.801Z,61.94
2023-03-26T06:55:29.419Z,62.09
2023-03-26T06:57:59.887Z,61.95
2023-03-26T07:00:32.001Z,62.21
2023-03-26T07:03:02.598Z,62.25
2023-03-26T07:05:33.079Z,61.95
2023-03-26T07:08:03.770Z,62.08
2023-03-26T07:10:34.294Z,62.28
2023-03-26T07:13:04.812Z,62.49
2023-03-26T07:15:36.993Z,63.08
2023-03-26T07:18:08.278Z,64.09
2023-03-26T07:20:39.231Z,64.79
2023-03-26T07:23:10.255Z,65.28
2023-03-26T07:25:41.949Z,65.69
2023-03-26T07:28:21.399Z,65.50
2023-03-26T07:31:04.360Z,65.93
2023-03-26T07:33:40.215Z,65.96
2023-03-26T07:36:21.867Z,65.79
2023-03-26T07:39:13.853Z,65.64
2023-03-26T07:41:52.585Z,65.83
2023-03-26T07:44:41.236Z,65.74
2023-03-26T07:47:26.528Z,65.82
2023-03-26T07:50:00.193Z,66.26
2023-03-26T07:52:31.199Z,66.55
2023-03-26T07:55:02.107Z,66.63
2023-03-26T07:57:48.316Z,66.60
2023-03-26T08:00:23.664Z,66.74
2023-03-26T08:03:31.972Z,67.83
2023-03-26T08:06:15.576Z,68.18
2023-03-26T08:08:56.608Z,68.28
2023-03-26T08:11:37.434Z,68.51
2023-03-26T08:14:20.770Z,68.92
2023-03-26T08:16:58.466Z,69.04
2023-03-26T08:19:44.707Z,69.65
2023-03-26T08:22:27.110Z,69.87
2023-03-26T08:25:22.565Z,70.78
2023-03-26T08:28:06.686Z,70.81
2023-03-26T08:30:39.077Z,71.84
2023-03-26T08:33:17.751Z,72.46
2023-03-26T08:35:49.099Z,72.74
2023-03-26T08:38:23.926Z,73.21
2023-03-26T08:41:31.247Z,73.21
2023-03-26T08:44:48.508Z,73.53
2023-03-26T08:48:00.273Z,73.78
2023-03-26T08:50:52.580Z,74.03
2023-03-26T08:54:07.041Z,74.33
2023-03-26T08:56:51.204Z,74.63
2023-03-26T09:00:14.490Z,75.24
2023-03-26T09:03:19.958Z,75.72
2023-03-26T09:06:37.226Z,76.01
2023-03-26T09:09:59.873Z,76.95
2023-03-26T09:12:58.294Z,76.86
2023-03-26T09:16:19.175Z,77.00
2023-03-26T09:19:22.341Z,77.27
2023-03-26T09:22:25.150Z,77.62
2023-03-26T09:25:42.491Z,77.75
2023-03-26T09:28:34.462Z,78.03
2023-03-26T09:31:45.874Z,77.70
2023-03-26T09:34:36.526Z,78.71
2023-03-26T09:37:20.090Z,78.39
2023-03-26T09:40:05.919Z,78.66
2023-03-26T09:42:48.993Z,79.26
2023-03-26T09:45:37.997Z,79.35
2023-03-26T09:48:38.443Z,79.86
2023-03-26T09:51:37.099Z,79.95
2023-03-26T09:54:35.423Z,80.12
2023-03-26T09:57:16.002Z,80.44
2023-03-26T10:00:07.199Z,80.02
2023-03-26T10:03:01.211Z,80.34
2023-03-26T10:05:47.044Z,81.26
2023-03-26T10:08:45.253Z,81.31
2023-03-26T10:11:25.898Z,80.99
2023-03-26T10:14:06.331Z,80.68
2023-03-26T10:16:52.849Z,80.55
2023-03-26T10:19:36.791Z,80.38
2023-03-26T10:22:17.212Z,80.27
2023-03-26T10:25:22.948Z,80.44
2023-03-26T10:28:06.942Z,80.70
2023-03-26T10:31:07.387Z,80.59
2023-03-26T10:33:50.701Z,80.60
2023-03-26T10:36:33.853Z,80.48
2023-03-26T10:39:38.981Z,80.80
2023-03-26T10:42:38.373Z,81.14
2023-03-26T10:45:43.885Z,81.01
2023-03-26T10:48:42.865Z,81.13
2023-03-26T10:51:37.635Z,81.44
2023-03-26T10:54:17.834Z,81.32
2023-03-26T10:56:54.694Z,81.20
2023-03-26T10:59:28.220Z,81.52
2023-03-26T11:02:30.110Z,81.15
2023-03-26T11:05:24.705Z,81.43
2023-03-26T11:08:04.756Z,81.70
2023-03-26T11:10:45.789Z,82.27
2023-03-26T11:13:29.093Z,81.85
2023-03-26T11:16:07.178Z,82.52
2023-03-26T11:18:46.232Z,82.70
2023-03-26T11:21:25.862Z,82.36
2023-03-26T11:24:14.563Z,82.78
2023-03-26T11:26:53.938Z,83.14
2023-03-26T11:29:37.987Z,83.33
2023-03-26T11:32:16.424Z,83.32
2023-03-26T11:34:55.240Z,83.28
2023-03-26T11:37:35.440Z,82.56
2023-03-26T11:40:13.989Z,82.68
2023-03-26T11:42:45.695Z,82.84
2023-03-26T11:45:22.421Z,83.25
2023-03-26T11:47:56.250Z,83.33
2023-03-26T11:50:30.516Z,83.35
2023-03-26T11:53:06.417Z,83.96
2023-03-26T11:55:40.655Z,84.55
2023-03-26T11:58:30.396Z,85.14
2023-03-26T12:01:05.210Z,85.93
2023-03-26T12:03:39.125Z,86.30
2023-03-26T12:06:30.206Z,86.60
2023-03-26T12:09:01.069Z,86.87
2023-03-26T12:11:36.156Z,87.20
2023-03-26T12:14:08.333Z,87.11
2023-03-26T12:16:38.893Z,87.52
2023-03-26T12:19:23.028Z,87.51
2023-03-26T12:21:55.300Z,87.69
2023-03-26T12:24:31.795Z,88.08
2023-03-26T12:27:05.566Z,88.71
2023-03-26T12:29:36.538Z,88.45
2023-03-26T12:32:10.255Z,88.58
2023-03-26T12:34:42.624Z,89.23
2023-03-26T12:37:37.349Z,89.29
2023-03-26T12:40:28.795Z,89.53
2023-03-26T12:44:53.289Z,89.54
2023-03-26T12:47:54.236Z,90.15
2023-03-26T12:48:48.257Z,90.28
2023-03-26T12:51:30.267Z,90.58
2023-03-26T12:54:11.322Z,90.78
2023-03-26T12:56:46.427Z,90.97
2023-03-26T12:59:39.513Z,91.57
2023-03-26T13:02:35.397Z,91.18
2023-03-26T13:05:35.243Z,91.76
2023-03-26T13:08:26.832Z,91.89
2023-03-26T13:11:04.701Z,92.24
2023-03-26T13:13:53.983Z,92.11
2023-03-26T13:16:32.582Z,92.51
2023-03-26T13:19:09.516Z,92.24
2023-03-26T13:22:00.100Z,92.46
2023-03-26T13:24:44.181Z,92.58
2023-03-26T13:27:39.648Z,92.73
2023-03-26T13:30:24.990Z,92.87
2023-03-26T13:33:14.969Z,92.95
2023-03-26T13:35:48.971Z,92.66
2023-03-26T13:38:30.604Z,92.64
2023-03-26T13:41:09.292Z,92.91
2023-03-26T13:43:52.230Z,92.71
2023-03-26T13:46:35.388Z,93.08
2023-03-26T13:49:13.971Z,93.05
2023-03-26T13:51:47.630Z,93.16
2023-03-26T13:54:26.829Z,92.98
2023-03-26T13:57:02.640Z,93.28
2023-03-26T13:59:38.775Z,93.30
2023-03-26T14:02:14.232Z,93.54
2023-03-26T14:04:50.255Z,93.82
2023-03-26T14:07:25.622Z,93.56
2023-03-26T14:09:59.819Z,93.44
2023-03-26T14:12:49.924Z,93.24
2023-03-26T14:15:29.832Z,93.21
2023-03-26T14:18:04.241Z,93.21
2023-03-26T14:21:11.693Z,92.84
2023-03-26T14:24:00.857Z,92.80
2023-03-26T14:26:44.199Z,92.84
2023-03-26T14:29:56.895Z,92.66
2023-03-26T14:32:39.891Z,92.71
2023-03-26T14:35:24.205Z,93.02
2023-03-26T14:38:25.483Z,93.64
2023-03-26T14:41:15.595Z,93.74
2023-03-26T14:44:18.566Z,94.01
2023-03-26T14:47:08.194Z,94.43
2023-03-26T14:50:05.175Z,94.18
2023-03-26T14:52:49.199Z,94.74
2023-03-26T14:55:40.513Z,94.73
2023-03-26T14:58:49.414Z,95.37
2023-03-26T15:01:30.867Z,95.17
2023-03-26T15:04:45.357Z,95.98
2023-03-26T15:07:52.264Z,96.46
2023-03-26T15:10:56.787Z,96.41
2023-03-26T15:13:51.563Z,96.49
2023-03-26T15:16:55.423Z,96.69
2023-03-26T15:20:01.326Z,96.46
2023-03-26T15:23:09.755Z,96.70
2023-03-26T15:26:20.524Z,96.91
2023-03-26T15:29:30.815Z,96.65
2023-03-26T15:32:30.991Z,96.62
2023-03-26T15:35:46.683Z,96.87
2023-03-26T15:38:49.232Z,97.25
2023-03-26T15:41:28.917Z,97.75
2023-03-26T15:44:50.952Z,97.75
2023-03-26T15:47:51.094Z,98.61
2023-03-26T15:50:38.859Z,99.01
2023-03-26T15:53:24.507Z,99.54
2023-03-26T15:56:09.817Z,99.61
2023-03-26T15:58:51.243Z,99.64
2023-03-26T16:01:35.425Z,99.61
2023-03-26T16:04:20.461Z,99.58
2023-03-26T16:06:59.511Z,99.36
2023-03-26T16:09:58.347Z,99.09
2023-03-26T16:12:43.971Z,99.03
2023-03-26T16:15:27.467Z,98.99
2023-03-26T16:18:30.598Z,99.03
2023-03-26T16:21:56.863Z,99.21
2023-03-26T16:24:31.260Z,99.40
2023-03-26T16:27:34.336Z,100.00
2023-03-26T16:30:32.304Z,100.00
2023-03-26T16:33:16.748Z,100.00
2023-03-26T16:36:09.717Z,100.00
2023-03-26T16:39:04.753Z,100.00
2023-03-26T16:41:37.334Z,100.00
2023-03-26T16:44:18.078Z,100.00
2023-03-26T16:47:01.000Z,100.00
2023-03-26T16:49:47.011Z,100.00
2023-03-26T16:52:52.928Z,100.00
2023-03-26T16:55:41.437Z,100.00
2023-03-26T16:58:24.453Z,100.00
2023-03-26T17:01:06.988Z,100.00
2023-03-26T17:03:47.577Z,100.00
2023-03-26T17:06:42.326Z,100.00
2023-03-26T17:09:25.918Z,100.00
2023-03-26T17:12:08.673Z,100.00
2023-03-26T17:14:52.632Z,100.00
2023-03-26T17:17:45.503Z,100.00
2023-03-26T17:20:33.696Z,99.96
2023-03-26T17:23:19.740Z,100.00
2023-03-26T17:26:06.479Z,99.42
2023-03-26T17:29:04.879Z,99.16
2023-03-26T17:31:42.569Z,99.00
2023-03-26T17:34:47.956Z,99.43
2023-03-26T17:37:46.662Z,99.09
2023-03-26T17:40:48.896Z,99.27
2023-03-26T17:43:38.760Z,99.47
2023-03-26T17:46:23.279Z,99.54
2023-03-26T17:49:01.042Z,99.93
2023-03-26T17:51:46.712Z,100.00
2023-03-26T17:54:24.719Z,100.00
2023-03-26T17:56:57.257Z,100.00
2023-03-26T17:59:30.256Z,100.00
2023-03-26T18:02:04.388Z,100.00
2023-03-26T18:04:38.296Z,100.00
2023-03-26T18:07:32.247Z,100.00
2023-03-26T18:10:25.344Z,100.00
2023-03-26T18:13:25.260Z,100.00
2023-03-26T18:16:10.284Z,100.00
2023-03-26T18:18:50.766Z,100.00
2023-03-26T18:21:27.853Z,100.00
2023-03-26T18:24:00.174Z,100.00
2023-03-26T18:26:39.171Z,100.00
2023-03-26T18:29:20.255Z,100.00
2023-03-26T18:31:57.499Z,100.00
2023-03-26T18:34:32.737Z,100.00
2023-03-26T18:37:15.522Z,100.00
2023-03-26T18:39:58.488Z,100.00
2023-03-26T18:42:29.931Z,100.00
2023-03-26T18:45:05.077Z,100.00
2023-03-26T18:47:37.386Z,100.00
2023-03-26T18:50:19.543Z,100.00
2023-03-26T18:52:50.868Z,100.00
2023-03-26T18:55:23.505Z,100.00
2023-03-26T18:57:54.048Z,100.00
2023-03-26T19:00:26.297Z,100.00
2023-03-26T19:03:06.600Z,100.00
2023-03-26T19:05:39.942Z,100.00
2023-03-26T19:08:10.738Z,100.00
2023-03-26T19:10:44.262Z,100.00
2023-03-26T19:13:17.842Z,100.00
2023-03-26T19:15:49.471Z,100.00
2023-03-26T19:18:27.408Z,100.00
2023-03-26T19:21:02.937Z,100.00
2023-03-26T19:23:37.744Z,100.00
2023-03-26T19:26:13.444Z,100.00
2023-03-26T19:28:49.910Z,100.00
2023-03-26T19:31:31.037Z,100.00
2023-03-26T19:34:09.891Z,100.00
2023-03-26T19:36:58.864Z,100.00
2023-03-26T19:39:40.021Z,100.00
2023-03-26T19:42:15.782Z,100.00
2023-03-26T19:44:47.317Z,100.00
2023-03-26T19:47:47.346Z,100.00
2023-03-26T19:50:28.877Z,100.00
2023-03-26T19:53:35.748Z,100.00
2023-03-26T19:56:35.075Z,100.00
2023-03-26T19:59:16.696Z,100.00
2023-03-26T20:01:47.386Z,100.00
2023-03-26T20:04:18.011Z,100.00
2023-03-26T20:06:50.753Z,100.00
2023-03-26T20:09:22.855Z,100.00
2023-03-26T20:11:53.491Z,100.00
2023-03-26T20:14:26.796Z,100.00
2023-03-26T20:16:57.585Z,100.00
2023-03-26T20:19:28.232Z,100.00
2023-03-26T20:21:58.862Z,100.00
2023-03-26T20:24:31.419Z,100.00
2023-03-26T20:27:01.910Z,100.00
2023-03-26T20:29:32.461Z,100.00
2023-03-26T20:32:04.496Z,100.00
2023-03-26T20:34:35.203Z,100.00
2023-03-26T20:37:05.648Z,100.00
2023-03-26T20:39:37.795Z,100.00
2023-03-26T20:42:08.595Z,100.00
2023-03-26T20:44:39.230Z,100.00
2023-03-26T20:47:10.173Z,100.00
2023-03-26T20:49:41.064Z,100.00
2023-03-26T20:52:16.280Z,100.00
2023-03-26T20:54:50.062Z,100.00
2023-03-26T20:57:21.000Z,100.00
2023-03-26T20:59:51.504Z,100.00
2023-03-26T21:02:22.687Z,100.00
2023-03-26T21:04:53.741Z,100.00
2023-03-26T21:07:24.301Z,100.00
2023-03-26T21:10:03.472Z,100.00
2023-03-26T21:12:38.926Z,100.00
2023-03-26T21:15:22.499Z,100.00
2023-03-26T21:17:55.743Z,100.00
2023-03-26T21:20:29.326Z,100.00
2023-03-26T21:23:10.953Z,100.00
2023-03-26T21:25:53.619Z,100.00
2023-03-26T21:28:41.851Z,100.00
2023-03-26T21:31:19.242Z,100.00
2023-03-26T21:33:51.436Z,100.00
2023-03-26T21:36:23.792Z,100.00
2023-03-26T21:38:55.477Z,100.00
2023-03-26T21:41:37.264Z,100.00
2023-03-26T21:44:08.269Z,100.00
2023-03-26T21:46:39.398Z,100.00
2023-03-26T21:49:10.371Z,100.00
2023-03-26T21:51:41.558Z,100.00
2023-03-26T21:54:24.343Z,100.00
2023-03-26T21:57:13.563Z,99.91
2023-03-26T21:59:53.112Z,99.12
2023-03-26T22:02:31.843Z,98.49
2023-03-26T22:05:10.825Z,98.63
2023-03-26T22:07:52.360Z,98.55
2023-03-26T22:10:23.092Z,97.95
2023-03-26T22:12:55.184Z,96.81
2023-03-26T22:15:27.546Z,97.31
2023-03-26T22:17:58.062Z,96.59
2023-03-26T22:20:28.913Z,96.24
2023-03-26T22:23:01.333Z,96.46
2023-03-26T22:25:31.859Z,96.09
2023-03-26T22:28:05.171Z,95.13
2023-03-26T22:30:36.487Z,95.19
2023-03-26T22:33:12.737Z,94.97
2023-03-26T22:35:44.928Z,94.78
2023-03-26T22:38:15.883Z,94.48
2023-03-26T22:40:46.427Z,94.88
2023-03-26T22:43:18.621Z,94.10
2023-03-26T22:45:52.598Z,94.45
2023-03-26T22:48:23.398Z,94.64
2023-03-26T22:51:04.352Z,94.08
2023-03-26T22:53:34.959Z,93.63
2023-03-26T22:56:06.350Z,92.88
2023-03-26T22:58:38.839Z,93.52
2023-03-26T23:01:11.674Z,93.50
2023-03-26T23:03:42.370Z,93.51
2023-03-26T23:06:14.074Z,92.52
2023-03-26T23:08:47.558Z,92.26
2023-03-26T23:11:19.924Z,92.34
2023-03-26T23:13:52.727Z,92.58
2023-03-26T23:16:23.423Z,91.40
2023-03-26T23:18:54.022Z,91.34
2023-03-26T23:21:25.161Z,90.94
2023-03-26T23:23:55.665Z,90.77
2023-03-26T23:26:27.264Z,90.90
2023-03-26T23:29:00.022Z,89.97
2023-03-26T23:31:32.666Z,89.49
2023-03-26T23:34:03.409Z,89.18
2023-03-26T23:36:33.911Z,88.41
2023-03-26T23:39:05.544Z,88.97
2023-03-26T23:41:36.105Z,88.57
2023-03-26T23:44:08.437Z,88.28
2023-03-26T23:46:42.399Z,88.51
2023-03-26T23:49:13.032Z,88.47
2023-03-26T23:51:43.890Z,87.90
2023-03-26T23:54:14.616Z,88.28
2023-03-26T23:56:45.143Z,88.53
2023-03-26T23:59:17.792Z,88.08
